Time;durP1;ratioP1;P1;durP2;ratioP2;P2;SDS_P1;SDS_P2;PMS_P1;PMS_P2;Temp;Humidity;BMP_temperature;BMP_pressure;BME280_temperature;BME280_humidity;BME280_pressure;Samples;Min_cycle;Max_cycle;Signal;HPM_P1;HPM_P2
2023/05/11 00:00:43;;;;;;;;;;;9.50;99.90;;;;;;8171507;29;20640;-83
2023/05/11 00:04:43;;;;;;;;;;;9.50;99.90;;;;;;8203204;28;20740;-84
2023/05/11 00:08:46;;;;;;;;;;;9.50;99.90;;;;;;8197210;29;19926;-84
2023/05/11 00:12:50;;;;;;;;;;;9.70;99.90;;;;;;8198937;29;19911;-83
2023/05/11 00:16:57;;;;;;;;;;;9.60;99.90;;;;;;8199172;28;19915;-84
2023/05/11 00:21:03;;;;;;;;;;;9.60;99.90;;;;;;8201102;29;20415;-84
2023/05/11 00:25:04;;;;;;;;;;;9.50;99.90;;;;;;8197539;29;20001;-84
2023/05/11 00:29:24;;;;;;;;;;;9.50;99.90;;;;;;8192461;28;19915;-84
2023/05/11 00:33:30;;;;;;;;;;;9.40;99.90;;;;;;8195363;29;20915;-83
2023/05/11 00:37:39;;;;;;;;;;;9.60;99.90;;;;;;8198679;29;19914;-84
2023/05/11 00:41:56;;;;;;;;;;;9.50;99.90;;;;;;8188785;28;19950;-84
2023/05/11 00:46:02;;;;;;;;;;;9.60;99.90;;;;;;8196429;28;19914;-84
2023/05/11 00:50:03;;;;;;;;;;;9.50;99.90;;;;;;8199164;29;19910;-84
2023/05/11 00:54:20;;;;;;;;;;;9.50;99.90;;;;;;8194829;28;19944;-84
2023/05/11 00:58:24;;;;;;;;;;;9.50;99.90;;;;;;8200718;28;19973;-84
2023/05/11 01:02:37;;;;;;;;;;;9.60;99.90;;;;;;8195171;29;20547;-83
2023/05/11 01:06:46;;;;;;;;;;;9.50;99.90;;;;;;8202307;28;19914;-84
2023/05/11 01:11:07;;;;;;;;;;;9.50;99.90;;;;;;8197243;28;19914;-83
2023/05/11 01:15:35;;;;;;;;;;;9.50;99.90;;;;;;8184642;29;19930;-83
2023/05/11 01:19:45;;;;;;;;;;;9.60;99.90;;;;;;8191866;29;19978;-84
2023/05/11 01:24:04;;;;;;;;;;;9.60;99.90;;;;;;8191122;29;19910;-83
2023/05/11 01:28:08;;;;;;;;;;;9.60;99.90;;;;;;8194331;28;19950;-84
2023/05/11 01:32:32;;;;;;;;;;;9.60;99.90;;;;;;8196501;29;19997;-84
2023/05/11 01:36:33;;;;;;;;;;;9.50;99.90;;;;;;8185324;29;20011;-84
2023/05/11 01:40:40;;;;;;;;;;;9.50;99.90;;;;;;8196363;28;19914;-84
2023/05/11 01:44:45;;;;;;;;;;;9.40;99.90;;;;;;8193650;29;19985;-84
2023/05/11 01:48:54;;;;;;;;;;;9.60;99.90;;;;;;8196228;28;19911;-84
2023/05/11 01:52:54;;;;;;;;;;;9.50;99.90;;;;;;8204366;28;20376;-84
2023/05/11 01:57:11;;;;;;;;;;;9.50;99.90;;;;;;8194233;29;19914;-84
2023/05/11 02:05:38;;;;;;;;;;;9.60;99.90;;;;;;8163663;29;20031;-84
2023/05/11 02:09:44;;;;;;;;;;;9.50;99.90;;;;;;8196089;28;19915;-84
2023/05/11 02:14:01;;;;;;;;;;;9.40;99.90;;;;;;8195446;29;20399;-84
2023/05/11 02:18:02;;;;;;;;;;;9.40;99.90;;;;;;8200572;28;19914;-84
2023/05/11 02:26:56;;;;;;;;;;;9.50;99.90;;;;;;8188956;29;19911;-84
2023/05/11 02:31:08;;;;;;;;;;;9.60;99.90;;;;;;8176032;29;19917;-84
2023/05/11 02:35:22;;;;;;;;;;;9.40;99.90;;;;;;8195599;29;19915;-84
2023/05/11 02:39:32;;;;;;;;;;;9.40;99.90;;;;;;8192659;28;20293;-84
2023/05/11 02:43:40;;;;;;;;;;;9.40;99.90;;;;;;8183596;29;19911;-84
2023/05/11 02:52:26;;;;;;;;;;;9.40;99.90;;;;;;8174776;29;19924;-84
2023/05/11 02:56:30;;;;;;;;;;;9.30;99.90;;;;;;8180797;29;19966;-85
2023/05/11 03:00:47;;;;;;;;;;;9.30;99.90;;;;;;8183120;29;19914;-85
2023/05/11 03:05:04;;;;;;;;;;;9.40;99.90;;;;;;8183306;29;19918;-84
2023/05/11 03:09:35;;;;;;;;;;;;;;;;;;;;;
2023/05/11 03:14:04;;;;;;;;;;;;;;;;;;;;;
2023/05/11 03:18:31;;;;;;;;;;;9.40;99.90;;;;;;8220441;28;19918;-86
2023/05/11 03:22:35;;;;;;;;;;;9.40;99.90;;;;;;8196732;29;19911;-86
2023/05/11 03:31:24;;;;;;;;;;;9.40;99.90;;;;;;8209960;28;19926;-87
2023/05/11 03:36:13;;;;;;;;;;;9.40;99.90;;;;;;8181385;29;19933;-86
2023/05/11 03:40:34;;;;;;;;;;;9.40;99.90;;;;;;8218156;28;19921;-88
2023/05/11 03:44:45;;;;;;;;;;;;;;;;;;;;;
2023/05/11 03:48:47;;;;;;;;;;;9.40;99.90;;;;;;8219010;28;20178;-87
2023/05/11 03:53:06;;;;;;;;;;;9.40;99.90;;;;;;8210697;28;19922;-86
2023/05/11 03:57:11;;;;;;;;;;;9.50;99.90;;;;;;8212661;29;19914;-88
2023/05/11 04:01:12;;;;;;;;;;;9.50;99.90;;;;;;8215605;29;20013;-86
2023/05/11 04:05:13;;;;;;;;;;;9.70;99.90;;;;;;8217139;28;19918;-87
2023/05/11 04:09:14;;;;;;;;;;;9.90;99.90;;;;;;8204520;29;19938;-89
2023/05/11 04:13:20;;;;;;;;;;;9.80;99.90;;;;;;8214224;28;19987;-85
2023/05/11 04:17:24;;;;;;;;;;;9.70;99.90;;;;;;8211677;28;19919;-84
2023/05/11 04:25:57;;;;;;;;;;;9.50;99.90;;;;;;8215376;28;20327;-85
2023/05/11 04:29:58;;;;;;;;;;;9.50;99.90;;;;;;8208970;28;19914;-89
2023/05/11 04:34:05;;;;;;;;;;;9.60;99.90;;;;;;8208264;28;19953;-84
2023/05/11 04:38:06;;;;;;;;;;;9.60;99.90;;;;;;8207518;29;19918;-85
2023/05/11 04:42:09;;;;;;;;;;;9.70;99.90;;;;;;8210112;28;19911;-84
2023/05/11 04:46:12;;;;;;;;;;;9.70;99.90;;;;;;8212396;28;19969;-84
2023/05/11 04:50:13;;;;;;;;;;;9.90;99.90;;;;;;8211459;28;20534;-84
2023/05/11 04:54:16;;;;;;;;;;;9.80;99.90;;;;;;8206252;28;19926;-84
2023/05/11 04:58:17;;;;;;;;;;;9.80;99.90;;;;;;8208564;28;19914;-85
2023/05/11 05:02:21;;;;;;;;;;;9.80;99.90;;;;;;8207499;28;19917;-85
2023/05/11 05:06:22;;;;;;;;;;;10.00;99.90;;;;;;8202069;28;19925;-85
2023/05/11 05:10:22;;;;;;;;;;;10.20;99.90;;;;;;8204500;28;19939;-86
2023/05/11 05:14:23;;;;;;;;;;;10.40;99.90;;;;;;8199080;29;19918;-86
2023/05/11 05:18:23;;;;;;;;;;;10.30;99.90;;;;;;8201298;29;20388;-82
2023/05/11 05:22:24;;;;;;;;;;;10.40;99.90;;;;;;8186253;29;19917;-82
2023/05/11 05:26:25;;;;;;;;;;;10.50;99.90;;;;;;8192198;29;19914;-83
2023/05/11 05:30:26;;;;;;;;;;;10.50;99.90;;;;;;8188846;28;19923;-82
2023/05/11 05:34:27;;;;;;;;;;;10.80;99.90;;;;;;8197129;28;20009;-83
2023/05/11 05:38:30;;;;;;;;;;;10.80;99.90;;;;;;8194470;29;19914;-83
2023/05/11 05:42:31;;;;;;;;;;;11.00;99.90;;;;;;8196454;28;20436;-83
2023/05/11 05:46:31;;;;;;;;;;;11.00;99.90;;;;;;8182656;28;19914;-82
2023/05/11 05:50:32;;;;;;;;;;;11.00;99.90;;;;;;8193185;28;20386;-82
2023/05/11 05:54:38;;;;;;;;;;;11.30;99.90;;;;;;8180721;28;19971;-83
2023/05/11 05:58:45;;;;;;;;;;;11.10;99.90;;;;;;8205849;28;19918;-82
2023/05/11 06:02:54;;;;;;;;;;;10.90;99.90;;;;;;8184000;29;19915;-82
2023/05/11 06:07:01;;;;;;;;;;;10.90;99.90;;;;;;8189668;29;19910;-82
2023/05/11 06:11:01;;;;;;;;;;;11.10;99.90;;;;;;8196560;28;20323;-83
2023/05/11 06:15:02;;;;;;;;;;;11.00;99.90;;;;;;8188998;28;19942;-82
2023/05/11 06:19:03;;;;;;;;;;;10.90;99.90;;;;;;8194287;28;19929;-82
2023/05/11 06:23:06;;;;;;;;;;;10.90;99.90;;;;;;8196004;28;19917;-83
2023/05/11 06:27:07;;;;;;;;;;;10.90;99.90;;;;;;8187390;28;19967;-82
2023/05/11 06:31:08;;;;;;;;;;;11.00;99.90;;;;;;8194222;29;19914;-82
2023/05/11 06:35:09;;;;;;;;;;;11.30;99.90;;;;;;8199407;28;19921;-82
2023/05/11 06:39:09;;;;;;;;;;;11.50;99.90;;;;;;8193792;29;20511;-82
2023/05/11 06:43:10;;;;;;;;;;;11.30;99.90;;;;;;8197615;29;20327;-82
2023/05/11 06:47:10;;;;;;;;;;;11.00;99.90;;;;;;8180846;29;20391;-82
2023/05/11 06:51:14;;;;;;;;;;;10.90;99.90;;;;;;8198322;29;19925;-82
2023/05/11 06:55:14;;;;;;;;;;;11.00;99.90;;;;;;8194808;28;19946;-82
2023/05/11 06:59:15;;;;;;;;;;;11.00;99.90;;;;;;8191616;29;19910;-82
2023/05/11 07:03:16;;;;;;;;;;;11.30;99.90;;;;;;8193320;29;19910;-82
2023/05/11 07:07:16;;;;;;;;;;;11.30;99.90;;;;;;8187110;29;19962;-82
2023/05/11 07:11:20;;;;;;;;;;;11.30;99.90;;;;;;8195926;29;20017;-82
2023/05/11 07:15:21;;;;;;;;;;;11.10;99.90;;;;;;8193878;29;19918;-82
2023/05/11 07:19:21;;;;;;;;;;;11.00;99.90;;;;;;8190249;29;20273;-82
2023/05/11 07:23:22;;;;;;;;;;;10.90;99.90;;;;;;8197862;29;19966;-82
2023/05/11 07:27:22;;;;;;;;;;;11.00;99.90;;;;;;8192766;29;19910;-82
2023/05/11 07:31:28;;;;;;;;;;;10.90;99.90;;;;;;8187133;29;19922;-82
2023/05/11 07:35:29;;;;;;;;;;;10.90;99.90;;;;;;8196080;29;20345;-82
2023/05/11 07:39:30;;;;;;;;;;;10.90;99.90;;;;;;8183754;29;20001;-82
2023/05/11 07:43:30;;;;;;;;;;;10.80;99.90;;;;;;8195608;29;19911;-83
2023/05/11 07:47:46;;;;;;;;;;;11.00;99.90;;;;;;8185992;29;19911;-83
2023/05/11 07:51:47;;;;;;;;;;;11.00;99.90;;;;;;8192844;28;19910;-83
2023/05/11 07:56:00;;;;;;;;;;;11.00;99.90;;;;;;8193757;28;19926;-82
2023/05/11 08:00:10;;;;;;;;;;;11.10;99.90;;;;;;8189979;29;19959;-83
2023/05/11 08:04:17;;;;;;;;;;;11.10;99.90;;;;;;8191032;29;19914;-84
2023/05/11 08:08:41;;;;;;;;;;;11.40;99.90;;;;;;8187183;29;19973;-84
2023/05/11 08:12:41;;;;;;;;;;;11.20;99.90;;;;;;8181842;29;19958;-84
2023/05/11 08:17:07;;;;;;;;;;;11.30;99.90;;;;;;8188473;29;20375;-84
2023/05/11 08:21:13;;;;;;;;;;;11.40;99.90;;;;;;8183511;29;19911;-84
2023/05/11 08:25:17;;;;;;;;;;;11.40;99.90;;;;;;8185186;29;19914;-83
2023/05/11 08:29:26;;;;;;;;;;;11.40;99.90;;;;;;8191074;29;19911;-83
2023/05/11 08:33:32;;;;;;;;;;;11.40;99.90;;;;;;8188623;29;20435;-83
2023/05/11 08:37:38;;;;;;;;;;;11.60;99.90;;;;;;8184759;29;19915;-83
2023/05/11 08:41:51;;;;;;;;;;;11.60;99.90;;;;;;8186337;29;19925;-83
2023/05/11 08:46:01;;;;;;;;;;;11.90;99.90;;;;;;8189824;29;19911;-83
2023/05/11 08:50:08;;;;;;;;;;;12.10;99.90;;;;;;8198073;29;20013;-83
2023/05/11 08:54:08;;;;;;;;;;;12.10;99.90;;;;;;8189899;28;19926;-83
2023/05/11 08:58:14;;;;;;;;;;;12.10;99.90;;;;;;8191753;29;20014;-83
2023/05/11 09:02:21;;;;;;;;;;;12.20;99.90;;;;;;8189042;29;19961;-82
2023/05/11 09:06:23;;;;;;;;;;;12.20;99.90;;;;;;8192812;29;19989;-82
2023/05/11 09:10:29;;;;;;;;;;;12.00;99.90;;;;;;8184846;29;19913;-82
2023/05/11 09:14:33;;;;;;;;;;;12.00;99.90;;;;;;8193251;29;20622;-83
2023/05/11 09:18:34;;;;;;;;;;;12.40;99.90;;;;;;8187497;28;19919;-83
2023/05/11 09:22:40;;;;;;;;;;;12.50;99.90;;;;;;8193251;29;19920;-83
2023/05/11 09:26:41;;;;;;;;;;;12.50;99.90;;;;;;8182704;29;19918;-83
2023/05/11 09:30:42;;;;;;;;;;;12.70;99.90;;;;;;8192613;29;19914;-83
2023/05/11 09:34:49;;;;;;;;;;;12.80;99.90;;;;;;8190695;29;19910;-83
2023/05/11 09:38:49;;;;;;;;;;;13.20;99.90;;;;;;8187605;29;20001;-82
2023/05/11 09:42:53;;;;;;;;;;;13.00;99.90;;;;;;8192395;29;19911;-82
2023/05/11 09:47:09;;;;;;;;;;;12.70;99.90;;;;;;8193762;29;20396;-82
2023/05/11 09:51:20;;;;;;;;;;;11.90;99.90;;;;;;8174748;29;20525;-82
2023/05/11 09:55:34;;;;;;;;;;;11.70;99.90;;;;;;8195111;28;19978;-83
2023/05/11 09:59:43;;;;;;;;;;;11.60;99.90;;;;;;8184619;29;19911;-82
2023/05/11 10:03:52;;;;;;;;;;;11.60;99.90;;;;;;8178294;28;20658;-82
2023/05/11 10:07:59;;;;;;;;;;;11.50;99.90;;;;;;8183423;29;19997;-83
2023/05/11 10:12:04;;;;;;;;;;;11.40;99.90;;;;;;8194503;28;19914;-82
2023/05/11 10:16:05;;;;;;;;;;;11.50;99.90;;;;;;8184128;29;19915;-81
2023/05/11 10:20:06;;;;;;;;;;;11.90;99.90;;;;;;8181552;29;19910;-81
2023/05/11 10:24:07;;;;;;;;;;;11.80;99.90;;;;;;8199715;28;19921;-82
2023/05/11 10:28:14;;;;;;;;;;;12.20;99.90;;;;;;8187529;28;19953;-83
2023/05/11 10:32:16;;;;;;;;;;;12.20;99.90;;;;;;8183654;29;19965;-82
2023/05/11 10:36:21;;;;;;;;;;;13.00;99.90;;;;;;8190417;29;19942;-82
2023/05/11 10:40:24;;;;;;;;;;;12.60;99.90;;;;;;8184168;29;19911;-82
2023/05/11 10:44:45;;;;;;;;;;;13.10;99.90;;;;;;8185808;29;19917;-82
2023/05/11 10:48:54;;;;;;;;;;;12.50;99.90;;;;;;8191872;29;19911;-82
2023/05/11 10:53:02;;;;;;;;;;;12.20;99.90;;;;;;8182906;28;19919;-82
2023/05/11 10:57:30;;;;;;;;;;;13.10;99.90;;;;;;8179618;29;19927;-82
2023/05/11 11:01:41;;;;;;;;;;;13.10;99.90;;;;;;8190454;28;20009;-82
2023/05/11 11:05:50;;;;;;;;;;;13.40;99.90;;;;;;8193119;29;19942;-83
2023/05/11 11:09:58;;;;;;;;;;;13.70;99.90;;;;;;8181248;29;19911;-83
2023/05/11 11:14:13;;;;;;;;;;;13.70;99.90;;;;;;8188949;29;19911;-83
2023/05/11 11:18:33;;;;;;;;;;;14.00;99.90;;;;;;8190452;29;20292;-83
2023/05/11 11:22:40;;;;;;;;;;;14.50;99.90;;;;;;8186237;29;19985;-82
2023/05/11 11:26:54;;;;;;;;;;;13.90;99.90;;;;;;8178602;29;19938;-83
2023/05/11 11:31:24;;;;;;;;;;;14.10;99.90;;;;;;8180466;29;20551;-83
2023/05/11 11:35:44;;;;;;;;;;;13.70;99.90;;;;;;8157884;29;20291;-82
2023/05/11 11:40:04;;;;;;;;;;;14.00;99.90;;;;;;8182584;28;19953;-83
2023/05/11 11:44:24;;;;;;;;;;;15.20;99.90;;;;;;8197784;29;20438;-83
2023/05/11 11:53:28;;;;;;;;;;;14.30;99.90;;;;;;8168343;29;19925;-84
2023/05/11 11:57:42;;;;;;;;;;;14.70;99.90;;;;;;8195608;28;19941;-84
2023/05/11 12:01:54;;;;;;;;;;;14.60;99.90;;;;;;8177377;28;20288;-83
2023/05/11 12:10:47;;;;;;;;;;;14.40;99.90;;;;;;8187078;29;19911;-84
2023/05/11 12:15:11;;;;;;;;;;;;;;;;;;;;;
2023/05/11 12:19:32;;;;;;;;;;;14.60;99.90;;;;;;8192198;29;19914;-84
2023/05/11 12:24:08;;;;;;;;;;;15.00;99.90;;;;;;8196077;29;19910;-84
2023/05/11 12:28:20;;;;;;;;;;;14.80;99.90;;;;;;8191999;29;20561;-84
2023/05/11 12:37:26;;;;;;;;;;;13.60;99.90;;;;;;8178429;29;19920;-84
2023/05/11 12:41:36;;;;;;;;;;;13.70;99.90;;;;;;8179063;29;19911;-84
2023/05/11 12:45:49;;;;;;;;;;;13.50;99.90;;;;;;8209872;28;20025;-83
2023/05/11 12:49:53;;;;;;;;;;;13.20;99.90;;;;;;8179374;29;19915;-83
2023/05/11 12:54:05;;;;;;;;;;;12.00;99.90;;;;;;8187232;29;19910;-83
2023/05/11 12:58:34;;;;;;;;;;;12.20;99.90;;;;;;8184405;28;19930;-82
2023/05/11 13:03:04;;;;;;;;;;;10.60;99.90;;;;;;8200023;28;19923;-83
2023/05/11 13:07:39;;;;;;;;;;;11.50;99.90;;;;;;8193312;28;19910;-82
2023/05/11 13:11:42;;;;;;;;;;;11.30;99.90;;;;;;8192862;29;20005;-83
2023/05/11 13:15:50;;;;;;;;;;;13.10;99.90;;;;;;8198372;29;19922;-88
2023/05/11 13:19:50;;;;;;;;;;;12.90;99.90;;;;;;8201778;29;19917;-85
2023/05/11 13:28:30;;;;;;;;;;;13.30;99.90;;;;;;8204325;29;19925;-85
2023/05/11 13:32:39;;;;;;;;;;;12.60;99.90;;;;;;8197575;29;19914;-85
2023/05/11 13:36:40;;;;;;;;;;;13.00;99.90;;;;;;8194417;29;19918;-85
2023/05/11 13:40:44;;;;;;;;;;;12.80;99.90;;;;;;8187728;28;20360;-85
2023/05/11 13:44:48;;;;;;;;;;;13.20;99.90;;;;;;8196226;29;20372;-85
2023/05/11 13:48:48;;;;;;;;;;;13.90;99.90;;;;;;8202055;28;19914;-85
2023/05/11 13:52:51;;;;;;;;;;;13.50;99.90;;;;;;8194612;29;19915;-85
2023/05/11 13:57:16;;;;;;;;;;;13.30;99.90;;;;;;8190989;28;19918;-85
2023/05/11 14:01:20;;;;;;;;;;;13.60;99.90;;;;;;8177806;29;20368;-85
2023/05/11 14:05:50;;;;;;;;;;;13.20;99.90;;;;;;8188510;29;19957;-85
2023/05/11 14:10:12;;;;;;;;;;;14.00;99.90;;;;;;8193460;29;19919;-86
2023/05/11 14:14:30;;;;;;;;;;;14.00;99.90;;;;;;8196090;29;19918;-86
2023/05/11 14:18:57;;;;;;;;;;;14.40;99.90;;;;;;8197228;29;20434;-85
2023/05/11 14:23:07;;;;;;;;;;;14.40;99.90;;;;;;8182773;29;20343;-85
2023/05/11 14:27:08;;;;;;;;;;;14.30;99.90;;;;;;8196138;29;20546;-85
2023/05/11 14:31:08;;;;;;;;;;;14.20;99.90;;;;;;8185188;29;20001;-85
2023/05/11 14:35:09;;;;;;;;;;;13.40;99.90;;;;;;8191021;29;19919;-86
2023/05/11 14:39:10;;;;;;;;;;;13.20;99.90;;;;;;8197170;29;19924;-84
2023/05/11 14:43:10;;;;;;;;;;;12.10;99.90;;;;;;8192476;29;19921;-85
2023/05/11 14:47:31;;;;;;;;;;;13.10;99.90;;;;;;8198103;29;19914;-88
2023/05/11 14:51:32;;;;;;;;;;;11.60;99.90;;;;;;8181685;29;20687;-85
2023/05/11 14:55:32;;;;;;;;;;;12.10;99.90;;;;;;8191568;29;19970;-86
2023/05/11 14:59:34;;;;;;;;;;;12.40;99.90;;;;;;8191071;29;19915;-86
2023/05/11 15:03:41;;;;;;;;;;;13.10;99.90;;;;;;8192414;29;20295;-85
2023/05/11 15:07:42;;;;;;;;;;;13.10;99.90;;;;;;8185443;29;19910;-86
2023/05/11 15:11:49;;;;;;;;;;;13.90;99.90;;;;;;8193505;28;19981;-85
2023/05/11 15:20:56;;;;;;;;;;;13.90;99.90;;;;;;8196587;29;19918;-84
2023/05/11 15:25:07;;;;;;;;;;;13.40;99.90;;;;;;8198641;28;19910;-84
2023/05/11 15:34:11;;;;;;;;;;;13.80;99.90;;;;;;8138449;29;19965;-83
2023/05/11 15:38:45;;;;;;;;;;;;;;;;;;;;;
2023/05/11 15:42:52;;;;;;;;;;;13.80;99.90;;;;;;8200886;29;19911;-84
2023/05/11 15:47:19;;;;;;;;;;;13.80;99.90;;;;;;8193124;28;19914;-83
2023/05/11 15:51:18;;;;;;;;;;;13.90;99.90;;;;;;8188671;29;19914;-83
2023/05/11 15:55:19;;;;;;;;;;;13.50;99.90;;;;;;8191902;29;19914;-83
2023/05/11 15:59:36;;;;;;;;;;;12.80;99.90;;;;;;8196621;29;19919;-83
2023/05/11 16:03:40;;;;;;;;;;;12.20;99.90;;;;;;8198508;28;19958;-82
2023/05/11 16:12:19;;;;;;;;;;;11.90;99.90;;;;;;8191754;28;20331;-82
2023/05/11 16:16:20;;;;;;;;;;;11.80;99.90;;;;;;8206981;28;19926;-83
2023/05/11 16:20:23;;;;;;;;;;;11.80;99.90;;;;;;8197138;29;20392;-82
2023/05/11 16:24:24;;;;;;;;;;;11.60;99.90;;;;;;8199757;28;19914;-82
2023/05/11 16:28:25;;;;;;;;;;;11.60;99.90;;;;;;8194163;28;19922;-82
2023/05/11 16:32:32;;;;;;;;;;;11.50;99.90;;;;;;8206569;28;19914;-82
2023/05/11 16:36:35;;;;;;;;;;;11.50;99.90;;;;;;8214001;28;19929;-82
2023/05/11 16:40:39;;;;;;;;;;;11.60;99.90;;;;;;8211144;28;19969;-82
2023/05/11 16:44:42;;;;;;;;;;;11.80;99.90;;;;;;8209695;28;19919;-82
2023/05/11 16:48:45;;;;;;;;;;;11.80;99.90;;;;;;8184099;28;19977;-81
2023/05/11 16:52:47;;;;;;;;;;;12.00;99.90;;;;;;8203576;28;19923;-82
2023/05/11 16:56:48;;;;;;;;;;;12.10;99.90;;;;;;8196188;29;19926;-80
2023/05/11 17:00:51;;;;;;;;;;;12.10;99.90;;;;;;8194889;29;20022;-81
2023/05/11 17:04:53;;;;;;;;;;;12.00;99.90;;;;;;8196296;29;19918;-82
2023/05/11 17:08:56;;;;;;;;;;;11.90;99.90;;;;;;8197149;29;19911;-82
2023/05/11 17:12:57;;;;;;;;;;;11.90;99.90;;;;;;8192650;29;19917;-82
2023/05/11 17:16:57;;;;;;;;;;;11.80;99.90;;;;;;8192443;28;19914;-82
2023/05/11 17:21:01;;;;;;;;;;;12.20;99.90;;;;;;8195475;28;19915;-79
2023/05/11 17:25:02;;;;;;;;;;;12.00;99.90;;;;;;8195178;28;20005;-81
2023/05/11 17:29:03;;;;;;;;;;;11.50;99.90;;;;;;8195928;28;20387;-82
2023/05/11 17:33:04;;;;;;;;;;;11.30;99.90;;;;;;8195404;28;19947;-81
2023/05/11 17:37:05;;;;;;;;;;;11.50;99.90;;;;;;8190790;28;19927;-81
2023/05/11 17:41:06;;;;;;;;;;;11.40;99.90;;;;;;8177243;29;19921;-81
2023/05/11 17:45:07;;;;;;;;;;;11.50;99.90;;;;;;8195154;29;19911;-81
2023/05/11 17:49:08;;;;;;;;;;;11.50;99.90;;;;;;8192583;29;20436;-81
2023/05/11 17:53:12;;;;;;;;;;;11.40;99.90;;;;;;8191745;28;19942;-82
2023/05/11 17:57:12;;;;;;;;;;;11.30;99.90;;;;;;8193102;28;19966;-82
2023/05/11 18:01:20;;;;;;;;;;;11.20;99.90;;;;;;8198237;28;19922;-82
2023/05/11 18:05:21;;;;;;;;;;;11.10;99.90;;;;;;8192405;28;19918;-82
2023/05/11 18:09:27;;;;;;;;;;;11.40;99.90;;;;;;8194218;28;19915;-82
2023/05/11 18:13:30;;;;;;;;;;;11.40;99.90;;;;;;8183773;28;19962;-82
2023/05/11 18:17:33;;;;;;;;;;;11.30;99.90;;;;;;8202872;28;19962;-82
2023/05/11 18:21:35;;;;;;;;;;;11.30;99.90;;;;;;8188927;28;19931;-82
2023/05/11 18:25:35;;;;;;;;;;;11.20;99.90;;;;;;8199055;28;19921;-82
2023/05/11 18:29:41;;;;;;;;;;;11.10;99.90;;;;;;8195807;28;20001;-82
2023/05/11 18:33:42;;;;;;;;;;;10.90;99.90;;;;;;8189750;28;19911;-82
2023/05/11 18:37:45;;;;;;;;;;;10.90;99.90;;;;;;8188744;28;19915;-82
2023/05/11 18:41:46;;;;;;;;;;;11.00;99.90;;;;;;8189613;28;20272;-82
2023/05/11 18:45:48;;;;;;;;;;;10.70;99.90;;;;;;8175742;28;19997;-82
2023/05/11 18:49:58;;;;;;;;;;;10.50;99.90;;;;;;8198211;28;20449;-82
2023/05/11 18:53:59;;;;;;;;;;;10.80;99.90;;;;;;8186948;29;19915;-82
2023/05/11 18:58:04;;;;;;;;;;;10.80;99.90;;;;;;8194248;29;20499;-82
2023/05/11 19:02:10;;;;;;;;;;;10.50;99.90;;;;;;8191077;29;19919;-82
2023/05/11 19:06:14;;;;;;;;;;;10.60;99.90;;;;;;8188157;29;19918;-83
2023/05/11 19:10:23;;;;;;;;;;;10.40;99.90;;;;;;8191393;29;19911;-82
2023/05/11 19:14:24;;;;;;;;;;;10.20;99.90;;;;;;8187156;28;19918;-82
2023/05/11 19:18:35;;;;;;;;;;;10.40;99.90;;;;;;8183009;28;20297;-83
2023/05/11 19:22:39;;;;;;;;;;;10.50;99.90;;;;;;8189796;28;19914;-82
2023/05/11 19:26:45;;;;;;;;;;;10.30;99.90;;;;;;8204561;28;20315;-83
2023/05/11 19:30:46;;;;;;;;;;;10.40;99.90;;;;;;8190805;28;20006;-82
2023/05/11 19:34:50;;;;;;;;;;;10.90;99.90;;;;;;8191388;28;19962;-82
2023/05/11 19:38:51;;;;;;;;;;;10.90;99.90;;;;;;8181796;29;19914;-82
2023/05/11 19:42:52;;;;;;;;;;;11.10;99.90;;;;;;8179890;29;20569;-82
2023/05/11 19:46:54;;;;;;;;;;;10.90;99.90;;;;;;8185738;28;20291;-82
2023/05/11 19:50:58;;;;;;;;;;;10.80;99.90;;;;;;8196164;28;19917;-82
2023/05/11 19:55:05;;;;;;;;;;;10.80;99.90;;;;;;8194592;29;20291;-82
2023/05/11 19:59:05;;;;;;;;;;;10.60;99.90;;;;;;8190891;29;19934;-83
2023/05/11 20:03:14;;;;;;;;;;;10.50;99.90;;;;;;8187377;29;20013;-82
2023/05/11 20:07:15;;;;;;;;;;;10.20;99.90;;;;;;8196829;29;19914;-82
2023/05/11 20:11:20;;;;;;;;;;;10.00;99.90;;;;;;8183957;28;19918;-82
2023/05/11 20:15:20;;;;;;;;;;;10.00;99.90;;;;;;8193144;29;20017;-82
2023/05/11 20:19:21;;;;;;;;;;;10.20;99.90;;;;;;8201002;28;19925;-82
2023/05/11 20:23:21;;;;;;;;;;;10.30;99.90;;;;;;8186914;29;19918;-83
2023/05/11 20:27:23;;;;;;;;;;;10.10;99.90;;;;;;8192398;29;19914;-83
2023/05/11 20:31:24;;;;;;;;;;;9.90;99.90;;;;;;8193317;29;19915;-82
2023/05/11 20:35:25;;;;;;;;;;;10.30;99.90;;;;;;8194970;28;19925;-82
2023/05/11 20:39:47;;;;;;;;;;;10.60;99.90;;;;;;8193605;28;19922;-83
2023/05/11 20:43:48;;;;;;;;;;;10.50;99.90;;;;;;8185639;29;19922;-82
2023/05/11 20:47:48;;;;;;;;;;;10.60;99.90;;;;;;8191995;28;20196;-83
2023/05/11 20:51:52;;;;;;;;;;;10.50;99.90;;;;;;8180664;28;19929;-82
2023/05/11 20:55:56;;;;;;;;;;;10.50;99.90;;;;;;8186415;28;19961;-82
2023/05/11 20:59:56;;;;;;;;;;;10.40;99.90;;;;;;8188997;28;19918;-82
2023/05/11 21:03:57;;;;;;;;;;;10.50;99.90;;;;;;8165833;29;20001;-81
2023/05/11 21:07:58;;;;;;;;;;;10.20;99.90;;;;;;8198680;28;19945;-83
2023/05/11 21:12:01;;;;;;;;;;;9.90;99.90;;;;;;8198636;28;19995;-83
2023/05/11 21:16:05;;;;;;;;;;;9.70;99.90;;;;;;8204242;28;19918;-83
2023/05/11 21:20:09;;;;;;;;;;;9.50;99.90;;;;;;8186346;29;19945;-83
2023/05/11 21:24:12;;;;;;;;;;;9.60;99.90;;;;;;8199857;28;20406;-82
2023/05/11 21:28:18;;;;;;;;;;;9.60;99.90;;;;;;8195792;29;19917;-83
2023/05/11 21:32:22;;;;;;;;;;;9.80;99.90;;;;;;8203218;28;19914;-82
2023/05/11 21:36:23;;;;;;;;;;;9.80;99.90;;;;;;8187460;29;19973;-83
2023/05/11 21:40:23;;;;;;;;;;;9.70;99.90;;;;;;8186017;28;19914;-83
2023/05/11 21:44:27;;;;;;;;;;;9.80;99.90;;;;;;8195784;28;19915;-83
2023/05/11 21:48:30;;;;;;;;;;;9.90;99.90;;;;;;8176833;28;20555;-83
2023/05/11 21:52:42;;;;;;;;;;;9.90;99.90;;;;;;8196710;28;19962;-83
2023/05/11 21:56:48;;;;;;;;;;;9.70;99.90;;;;;;8193888;28;20017;-82
2023/05/11 22:00:49;;;;;;;;;;;9.70;99.90;;;;;;8204905;28;19914;-81
2023/05/11 22:04:50;;;;;;;;;;;9.70;99.90;;;;;;8191406;28;19929;-81
2023/05/11 22:08:51;;;;;;;;;;;10.20;99.90;;;;;;8197507;28;19921;-81
2023/05/11 22:12:51;;;;;;;;;;;10.30;99.90;;;;;;8202561;28;19918;-82
2023/05/11 22:16:55;;;;;;;;;;;10.10;99.90;;;;;;8216504;28;19918;-81
2023/05/11 22:20:55;;;;;;;;;;;10.00;99.90;;;;;;8215720;28;19920;-81
2023/05/11 22:24:58;;;;;;;;;;;9.90;99.90;;;;;;8223464;28;19910;-80
2023/05/11 22:28:59;;;;;;;;;;;9.80;99.90;;;;;;8212461;28;19911;-81
2023/05/11 22:32:59;;;;;;;;;;;9.60;99.90;;;;;;8203675;28;19925;-80
2023/05/11 22:37:09;;;;;;;;;;;9.60;99.90;;;;;;8204752;28;20302;-81
2023/05/11 22:41:15;;;;;;;;;;;9.60;99.90;;;;;;8196992;28;20009;-81
2023/05/11 22:45:18;;;;;;;;;;;9.60;99.90;;;;;;8193548;29;19954;-82
2023/05/11 22:49:22;;;;;;;;;;;9.70;99.90;;;;;;8197227;28;19989;-82
2023/05/11 22:53:23;;;;;;;;;;;9.90;99.90;;;;;;8196757;28;19921;-80
2023/05/11 22:57:26;;;;;;;;;;;10.00;99.90;;;;;;8187541;29;19914;-81
2023/05/11 23:01:29;;;;;;;;;;;9.90;99.90;;;;;;8188783;28;19915;-79
2023/05/11 23:05:30;;;;;;;;;;;9.70;99.90;;;;;;8195117;29;19919;-80
2023/05/11 23:09:33;;;;;;;;;;;9.50;99.90;;;;;;8191357;29;19910;-81
2023/05/11 23:13:34;;;;;;;;;;;9.50;99.90;;;;;;8191863;28;20288;-82
2023/05/11 23:17:35;;;;;;;;;;;9.70;99.90;;;;;;8195734;29;19957;-81
2023/05/11 23:21:35;;;;;;;;;;;9.80;99.90;;;;;;8194409;28;19915;-82
2023/05/11 23:25:36;;;;;;;;;;;9.60;99.90;;;;;;8186660;29;20300;-81
2023/05/11 23:29:37;;;;;;;;;;;9.50;99.90;;;;;;8185175;29;19910;-81
2023/05/11 23:33:38;;;;;;;;;;;9.50;99.90;;;;;;8190851;29;19918;-82
2023/05/11 23:37:38;;;;;;;;;;;9.40;99.90;;;;;;8181627;29;19915;-82
2023/05/11 23:41:42;;;;;;;;;;;9.20;99.90;;;;;;8193648;28;20005;-81
2023/05/11 23:45:49;;;;;;;;;;;9.10;99.90;;;;;;8195530;29;20587;-82
2023/05/11 23:49:49;;;;;;;;;;;9.20;99.90;;;;;;8196905;28;20435;-81
2023/05/11 23:53:50;;;;;;;;;;;9.30;99.90;;;;;;8205480;28;19915;-81
2023/05/11 23:57:50;;;;;;;;;;;9.60;99.90;;;;;;8193878;29;19922;-81
